sensor_id;sensor_type;location;lat;lon;timestamp;P1;durP1;ratioP1;P2;durP2;ratioP2
49900;SDS011;35789;48.414;12.768;2024-03-02T00:00:00;101.3;;;34.5;;
49900;SDS011;35789;48.414;12.768;2024-03-02T00:05:00;135.9;;;38.6;;
49900;SDS011;35789;48.414;12.768;2024-03-02T00:10:00;135.9;;;38.6;;
49900;SDS011;35789;48.414;12.768;2024-03-02T00:15:00;135.9;;;38.6;;
49900;SDS011;35789;48.414;12.768;2024-03-02T00:20:00;135.9;;;38.6;;
49900;SDS011;35789;48.414;12.768;2024-03-02T00:25:00;135.9;;;38.6;;
49900;SDS011;35789;48.414;12.768;2024-03-02T00:30:00;135.9;;;38.6;;
49900;SDS011;35789;48.414;12.768;2024-03-02T00:35:00;101.7;;;33.5;;
49900;SDS011;35789;48.414;12.768;2024-03-02T00:40:00;101.7;;;33.5;;
49900;SDS011;35789;48.414;12.768;2024-03-02T00:45:00;101.7;;;33.5;;
49900;SDS011;35789;48.414;12.768;2024-03-02T00:50:00;101.7;;;33.5;;
49900;SDS011;35789;48.414;12.768;2024-03-02T00:55:00;101.7;;;33.5;;
49900;SDS011;35789;48.414;12.768;2024-03-02T01:00:00;101.7;;;33.5;;
49900;SDS011;35789;48.414;12.768;2024-03-02T01:05:00;355.4;;;44.6;;
49900;SDS011;35789;48.414;12.768;2024-03-02T01:10:00;355.4;;;44.6;;
49900;SDS011;35789;48.414;12.768;2024-03-02T01:15:00;355.4;;;44.6;;
49900;SDS011;35789;48.414;12.768;2024-03-02T01:20:00;355.4;;;44.6;;
49900;SDS011;35789;48.414;12.768;2024-03-02T01:25:00;355.4;;;44.6;;
49900;SDS011;35789;48.414;12.768;2024-03-02T01:30:00;355.4;;;44.6;;
49900;SDS011;35789;48.414;12.768;2024-03-02T01:35:00;263.2;;;37.7;;
49900;SDS011;35789;48.414;12.768;2024-03-02T01:40:00;263.2;;;37.7;;
49900;SDS011;35789;48.414;12.768;2024-03-02T01:45:00;263.2;;;37.7;;
49900;SDS011;35789;48.414;12.768;2024-03-02T01:50:01;263.2;;;37.7;;
49900;SDS011;35789;48.414;12.768;2024-03-02T01:55:00;263.2;;;37.7;;
49900;SDS011;35789;48.414;12.768;2024-03-02T02:00:01;263.2;;;37.7;;
49900;SDS011;35789;48.414;12.768;2024-03-02T02:05:00;150.8;;;23.6;;
49900;SDS011;35789;48.414;12.768;2024-03-02T02:10:00;150.8;;;23.6;;
49900;SDS011;35789;48.414;12.768;2024-03-02T02:15:00;150.8;;;23.6;;
49900;SDS011;35789;48.414;12.768;2024-03-02T02:20:00;150.8;;;23.6;;
49900;SDS011;35789;48.414;12.768;2024-03-02T02:25:00;150.8;;;23.6;;
49900;SDS011;35789;48.414;12.768;2024-03-02T02:30:00;150.8;;;23.6;;
49900;SDS011;35789;48.414;12.768;2024-03-02T02:35:00;156.7;;;23.3;;
49900;SDS011;35789;48.414;12.768;2024-03-02T02:40:00;156.7;;;23.3;;
49900;SDS011;35789;48.414;12.768;2024-03-02T02:45:00;156.7;;;23.3;;
49900;SDS011;35789;48.414;12.768;2024-03-02T02:50:01;156.7;;;23.3;;
49900;SDS011;35789;48.414;12.768;2024-03-02T02:55:00;156.7;;;23.3;;
49900;SDS011;35789;48.414;12.768;2024-03-02T03:00:00;156.7;;;23.3;;
49900;SDS011;35789;48.414;12.768;2024-03-02T03:05:00;78.1;;;20.2;;
49900;SDS011;35789;48.414;12.768;2024-03-02T03:10:00;78.1;;;20.2;;
49900;SDS011;35789;48.414;12.768;2024-03-02T03:15:00;78.1;;;20.2;;
49900;SDS011;35789;48.414;12.768;2024-03-02T03:20:00;78.1;;;20.2;;
49900;SDS011;35789;48.414;12.768;2024-03-02T03:25:00;78.1;;;20.2;;
49900;SDS011;35789;48.414;12.768;2024-03-02T03:30:00;78.1;;;20.2;;
49900;SDS011;35789;48.414;12.768;2024-03-02T03:35:00;170.0;;;28.4;;
49900;SDS011;35789;48.414;12.768;2024-03-02T03:40:01;170.0;;;28.4;;
49900;SDS011;35789;48.414;12.768;2024-03-02T03:45:00;170.0;;;28.4;;
49900;SDS011;35789;48.414;12.768;2024-03-02T03:50:00;170.0;;;28.4;;
49900;SDS011;35789;48.414;12.768;2024-03-02T03:55:00;170.0;;;28.4;;
49900;SDS011;35789;48.414;12.768;2024-03-02T04:00:00;170.0;;;28.4;;
49900;SDS011;35789;48.414;12.768;2024-03-02T04:05:00;114.3;;;23.2;;
49900;SDS011;35789;48.414;12.768;2024-03-02T04:10:00;114.3;;;23.2;;
49900;SDS011;35789;48.414;12.768;2024-03-02T04:15:00;114.3;;;23.2;;
49900;SDS011;35789;48.414;12.768;2024-03-02T04:20:00;114.3;;;23.2;;
49900;SDS011;35789;48.414;12.768;2024-03-02T04:25:01;114.3;;;23.2;;
49900;SDS011;35789;48.414;12.768;2024-03-02T04:30:00;114.3;;;23.2;;
49900;SDS011;35789;48.414;12.768;2024-03-02T04:35:00;53.2;;;20.3;;
49900;SDS011;35789;48.414;12.768;2024-03-02T04:40:00;53.2;;;20.3;;
49900;SDS011;35789;48.414;12.768;2024-03-02T04:45:00;53.2;;;20.3;;
49900;SDS011;35789;48.414;12.768;2024-03-02T04:50:00;53.2;;;20.3;;
49900;SDS011;35789;48.414;12.768;2024-03-02T04:55:00;53.2;;;20.3;;
49900;SDS011;35789;48.414;12.768;2024-03-02T05:00:00;53.2;;;20.3;;
49900;SDS011;35789;48.414;12.768;2024-03-02T05:05:00;36.6;;;19.7;;
49900;SDS011;35789;48.414;12.768;2024-03-02T05:10:00;36.6;;;19.7;;
49900;SDS011;35789;48.414;12.768;2024-03-02T05:15:00;36.6;;;19.7;;
49900;SDS011;35789;48.414;12.768;2024-03-02T05:20:00;36.6;;;19.7;;
49900;SDS011;35789;48.414;12.768;2024-03-02T05:25:00;36.6;;;19.7;;
49900;SDS011;35789;48.414;12.768;2024-03-02T05:30:00;36.6;;;19.7;;
49900;SDS011;35789;48.414;12.768;2024-03-02T05:35:00;106.4;;;25.2;;
49900;SDS011;35789;48.414;12.768;2024-03-02T05:40:00;106.4;;;25.2;;
49900;SDS011;35789;48.414;12.768;2024-03-02T05:45:00;106.4;;;25.2;;
49900;SDS011;35789;48.414;12.768;2024-03-02T05:50:00;106.4;;;25.2;;
49900;SDS011;35789;48.414;12.768;2024-03-02T05:55:01;106.4;;;25.2;;
49900;SDS011;35789;48.414;12.768;2024-03-02T06:00:00;106.4;;;25.2;;
49900;SDS011;35789;48.414;12.768;2024-03-02T06:05:00;87.8;;;24.0;;
49900;SDS011;35789;48.414;12.768;2024-03-02T06:10:00;87.8;;;24.0;;
49900;SDS011;35789;48.414;12.768;2024-03-02T06:15:00;87.8;;;24.0;;
49900;SDS011;35789;48.414;12.768;2024-03-02T06:20:00;87.8;;;24.0;;
49900;SDS011;35789;48.414;12.768;2024-03-02T06:25:00;87.8;;;24.0;;
49900;SDS011;35789;48.414;12.768;2024-03-02T06:30:00;87.8;;;24.0;;
49900;SDS011;35789;48.414;12.768;2024-03-02T06:35:00;87.8;;;26.5;;
49900;SDS011;35789;48.414;12.768;2024-03-02T06:40:00;87.8;;;26.5;;
49900;SDS011;35789;48.414;12.768;2024-03-02T06:45:00;87.8;;;26.5;;
49900;SDS011;35789;48.414;12.768;2024-03-02T06:50:00;87.8;;;26.5;;
49900;SDS011;35789;48.414;12.768;2024-03-02T06:55:00;87.8;;;26.5;;
49900;SDS011;35789;48.414;12.768;2024-03-02T07:00:00;87.8;;;26.5;;
49900;SDS011;35789;48.414;12.768;2024-03-02T07:05:00;100.3;;;28.6;;
49900;SDS011;35789;48.414;12.768;2024-03-02T07:10:00;100.3;;;28.6;;
49900;SDS011;35789;48.414;12.768;2024-03-02T07:15:00;100.3;;;28.6;;
49900;SDS011;35789;48.414;12.768;2024-03-02T07:20:00;100.3;;;28.6;;
49900;SDS011;35789;48.414;12.768;2024-03-02T07:25:00;100.3;;;28.6;;
49900;SDS011;35789;48.414;12.768;2024-03-02T07:30:00;100.3;;;28.6;;
49900;SDS011;35789;48.414;12.768;2024-03-02T07:35:00;118.8;;;29.8;;
49900;SDS011;35789;48.414;12.768;2024-03-02T07:40:00;118.8;;;29.8;;
49900;SDS011;35789;48.414;12.768;2024-03-02T07:45:00;118.8;;;29.8;;
49900;SDS011;35789;48.414;12.768;2024-03-02T07:50:00;118.8;;;29.8;;
49900;SDS011;35789;48.414;12.768;2024-03-02T07:55:00;118.8;;;29.8;;
49900;SDS011;35789;48.414;12.768;2024-03-02T08:00:00;118.8;;;29.8;;
49900;SDS011;35789;48.414;12.768;2024-03-02T08:05:00;66.4;;;26.4;;
49900;SDS011;35789;48.414;12.768;2024-03-02T08:10:00;66.4;;;26.4;;
49900;SDS011;35789;48.414;12.768;2024-03-02T08:15:00;66.4;;;26.4;;
49900;SDS011;35789;48.414;12.768;2024-03-02T08:20:00;66.4;;;26.4;;
49900;SDS011;35789;48.414;12.768;2024-03-02T08:25:00;66.4;;;26.4;;
49900;SDS011;35789;48.414;12.768;2024-03-02T08:30:00;66.4;;;26.4;;
49900;SDS011;35789;48.414;12.768;2024-03-02T08:35:00;51.9;;;24.5;;
49900;SDS011;35789;48.414;12.768;2024-03-02T08:40:01;51.9;;;24.5;;
49900;SDS011;35789;48.414;12.768;2024-03-02T08:45:00;51.9;;;24.5;;
49900;SDS011;35789;48.414;12.768;2024-03-02T08:50:00;51.9;;;24.5;;
49900;SDS011;35789;48.414;12.768;2024-03-02T08:55:00;51.9;;;24.5;;
49900;SDS011;35789;48.414;12.768;2024-03-02T09:00:00;51.9;;;24.5;;
49900;SDS011;35789;48.414;12.768;2024-03-02T09:05:00;69.8;;;28.4;;
49900;SDS011;35789;48.414;12.768;2024-03-02T09:10:00;69.8;;;28.4;;
49900;SDS011;35789;48.414;12.768;2024-03-02T09:15:01;69.8;;;28.4;;
49900;SDS011;35789;48.414;12.768;2024-03-02T09:20:00;69.8;;;28.4;;
49900;SDS011;35789;48.414;12.768;2024-03-02T09:25:00;69.8;;;28.4;;
49900;SDS011;35789;48.414;12.768;2024-03-02T09:30:00;69.8;;;28.4;;
49900;SDS011;35789;48.414;12.768;2024-03-02T09:35:00;77.2;;;33.4;;
49900;SDS011;35789;48.414;12.768;2024-03-02T09:45:00;77.2;;;33.4;;
49900;SDS011;35789;48.414;12.768;2024-03-02T09:50:00;77.2;;;33.4;;
49900;SDS011;35789;48.414;12.768;2024-03-02T09:55:00;77.2;;;33.4;;
49900;SDS011;35789;48.414;12.768;2024-03-02T10:00:00;77.2;;;33.4;;
49900;SDS011;35789;48.414;12.768;2024-03-02T10:05:00;64.0;;;31.9;;
49900;SDS011;35789;48.414;12.768;2024-03-02T10:15:03;64.0;;;31.9;;
49900;SDS011;35789;48.414;12.768;2024-03-02T10:25:00;64.0;;;31.9;;
49900;SDS011;35789;48.414;12.768;2024-03-02T10:30:02;64.0;;;31.9;;
49900;SDS011;35789;48.414;12.768;2024-03-02T10:35:00;58.0;;;30.7;;
49900;SDS011;35789;48.414;12.768;2024-03-02T10:40:04;58.0;;;30.7;;
49900;SDS011;35789;48.414;12.768;2024-03-02T10:45:00;58.0;;;30.7;;
49900;SDS011;35789;48.414;12.768;2024-03-02T10:50:00;58.0;;;30.7;;
49900;SDS011;35789;48.414;12.768;2024-03-02T10:55:00;58.0;;;30.7;;
49900;SDS011;35789;48.414;12.768;2024-03-02T11:00:03;58.0;;;30.7;;
49900;SDS011;35789;48.414;12.768;2024-03-02T11:05:05;52.5;;;29.8;;
49900;SDS011;35789;48.414;12.768;2024-03-02T11:10:01;52.5;;;29.8;;
49900;SDS011;35789;48.414;12.768;2024-03-02T11:15:00;52.5;;;29.8;;
49900;SDS011;35789;48.414;12.768;2024-03-02T11:20:00;52.5;;;29.8;;
49900;SDS011;35789;48.414;12.768;2024-03-02T11:25:00;52.5;;;29.8;;
49900;SDS011;35789;48.414;12.768;2024-03-02T11:30:00;52.5;;;29.8;;
49900;SDS011;35789;48.414;12.768;2024-03-02T11:35:02;59.5;;;29.7;;
49900;SDS011;35789;48.414;12.768;2024-03-02T11:40:00;59.5;;;29.7;;
49900;SDS011;35789;48.414;12.768;2024-03-02T11:45:00;59.5;;;29.7;;
49900;SDS011;35789;48.414;12.768;2024-03-02T11:50:00;59.5;;;29.7;;
49900;SDS011;35789;48.414;12.768;2024-03-02T11:55:01;59.5;;;29.7;;
49900;SDS011;35789;48.414;12.768;2024-03-02T12:00:00;46.4;;;26.4;;
49900;SDS011;35789;48.414;12.768;2024-03-02T12:05:03;46.4;;;26.4;;
49900;SDS011;35789;48.414;12.768;2024-03-02T12:10:01;46.4;;;26.4;;
49900;SDS011;35789;48.414;12.768;2024-03-02T12:15:00;46.4;;;26.4;;
49900;SDS011;35789;48.414;12.768;2024-03-02T12:20:00;46.4;;;26.4;;
49900;SDS011;35789;48.414;12.768;2024-03-02T12:30:00;48.0;;;26.2;;
49900;SDS011;35789;48.414;12.768;2024-03-02T12:40:00;48.0;;;26.2;;
49900;SDS011;35789;48.414;12.768;2024-03-02T12:45:00;48.0;;;26.2;;
49900;SDS011;35789;48.414;12.768;2024-03-02T12:50:00;48.0;;;26.2;;
49900;SDS011;35789;48.414;12.768;2024-03-02T12:55:00;48.0;;;26.2;;
49900;SDS011;35789;48.414;12.768;2024-03-02T13:00:01;48.9;;;26.4;;
49900;SDS011;35789;48.414;12.768;2024-03-02T13:05:00;48.9;;;26.4;;
49900;SDS011;35789;48.414;12.768;2024-03-02T13:10:00;48.9;;;26.4;;
49900;SDS011;35789;48.414;12.768;2024-03-02T13:15:00;48.9;;;26.4;;
49900;SDS011;35789;48.414;12.768;2024-03-02T13:20:03;48.9;;;26.4;;
49900;SDS011;35789;48.414;12.768;2024-03-02T13:25:00;48.9;;;26.4;;
49900;SDS011;35789;48.414;12.768;2024-03-02T13:30:01;45.7;;;24.6;;
49900;SDS011;35789;48.414;12.768;2024-03-02T13:35:00;45.7;;;24.6;;
49900;SDS011;35789;48.414;12.768;2024-03-02T13:40:00;45.7;;;24.6;;
49900;SDS011;35789;48.414;12.768;2024-03-02T13:45:00;45.7;;;24.6;;
49900;SDS011;35789;48.414;12.768;2024-03-02T13:50:00;45.7;;;24.6;;
49900;SDS011;35789;48.414;12.768;2024-03-02T13:55:00;45.7;;;24.6;;
49900;SDS011;35789;48.414;12.768;2024-03-02T14:00:01;42.6;;;23.4;;
49900;SDS011;35789;48.414;12.768;2024-03-02T14:05:00;42.6;;;23.4;;
49900;SDS011;35789;48.414;12.768;2024-03-02T14:10:00;42.6;;;23.4;;
49900;SDS011;35789;48.414;12.768;2024-03-02T14:15:00;42.6;;;23.4;;
49900;SDS011;35789;48.414;12.768;2024-03-02T14:20:00;42.6;;;23.4;;
49900;SDS011;35789;48.414;12.768;2024-03-02T14:25:00;42.6;;;23.4;;
49900;SDS011;35789;48.414;12.768;2024-03-02T14:30:00;42.3;;;22.4;;
49900;SDS011;35789;48.414;12.768;2024-03-02T14:35:00;42.3;;;22.4;;
49900;SDS011;35789;48.414;12.768;2024-03-02T14:40:00;42.3;;;22.4;;
49900;SDS011;35789;48.414;12.768;2024-03-02T14:45:00;42.3;;;22.4;;
49900;SDS011;35789;48.414;12.768;2024-03-02T14:50:00;42.3;;;22.4;;
49900;SDS011;35789;48.414;12.768;2024-03-02T14:55:00;42.3;;;22.4;;
49900;SDS011;35789;48.414;12.768;2024-03-02T15:00:00;42.1;;;22.8;;
49900;SDS011;35789;48.414;12.768;2024-03-02T15:05:00;42.1;;;22.8;;
49900;SDS011;35789;48.414;12.768;2024-03-02T15:10:00;42.1;;;22.8;;
49900;SDS011;35789;48.414;12.768;2024-03-02T15:15:01;42.1;;;22.8;;
49900;SDS011;35789;48.414;12.768;2024-03-02T15:20:00;42.1;;;22.8;;
49900;SDS011;35789;48.414;12.768;2024-03-02T15:25:00;42.1;;;22.8;;
49900;SDS011;35789;48.414;12.768;2024-03-02T15:30:00;47.1;;;24.8;;
49900;SDS011;35789;48.414;12.768;2024-03-02T15:35:00;47.1;;;24.8;;
49900;SDS011;35789;48.414;12.768;2024-03-02T15:40:00;47.1;;;24.8;;
49900;SDS011;35789;48.414;12.768;2024-03-02T15:45:00;47.1;;;24.8;;
49900;SDS011;35789;48.414;12.768;2024-03-02T15:50:00;47.1;;;24.8;;
49900;SDS011;35789;48.414;12.768;2024-03-02T15:55:00;47.1;;;24.8;;
49900;SDS011;35789;48.414;12.768;2024-03-02T16:00:00;42.5;;;24.0;;
49900;SDS011;35789;48.414;12.768;2024-03-02T16:05:00;42.5;;;24.0;;
49900;SDS011;35789;48.414;12.768;2024-03-02T16:10:00;42.5;;;24.0;;
49900;SDS011;35789;48.414;12.768;2024-03-02T16:15:00;42.5;;;24.0;;
49900;SDS011;35789;48.414;12.768;2024-03-02T16:25:00;42.5;;;24.0;;
49900;SDS011;35789;48.414;12.768;2024-03-02T16:30:00;43.0;;;24.1;;
49900;SDS011;35789;48.414;12.768;2024-03-02T16:35:00;43.0;;;24.1;;
49900;SDS011;35789;48.414;12.768;2024-03-02T16:40:00;43.0;;;24.1;;
49900;SDS011;35789;48.414;12.768;2024-03-02T16:45:00;43.0;;;24.1;;
49900;SDS011;35789;48.414;12.768;2024-03-02T16:50:00;43.0;;;24.1;;
49900;SDS011;35789;48.414;12.768;2024-03-02T16:55:00;43.0;;;24.1;;
49900;SDS011;35789;48.414;12.768;2024-03-02T17:00:00;44.8;;;23.4;;
49900;SDS011;35789;48.414;12.768;2024-03-02T17:05:00;44.8;;;23.4;;
49900;SDS011;35789;48.414;12.768;2024-03-02T17:10:00;44.8;;;23.4;;
49900;SDS011;35789;48.414;12.768;2024-03-02T17:15:00;44.8;;;23.4;;
49900;SDS011;35789;48.414;12.768;2024-03-02T17:20:00;44.8;;;23.4;;
49900;SDS011;35789;48.414;12.768;2024-03-02T17:25:00;44.8;;;23.4;;
49900;SDS011;35789;48.414;12.768;2024-03-02T17:30:00;44.0;;;22.3;;
49900;SDS011;35789;48.414;12.768;2024-03-02T17:35:00;44.0;;;22.3;;
49900;SDS011;35789;48.414;12.768;2024-03-02T17:40:00;44.0;;;22.3;;
49900;SDS011;35789;48.414;12.768;2024-03-02T17:45:00;44.0;;;22.3;;
49900;SDS011;35789;48.414;12.768;2024-03-02T17:50:00;44.0;;;22.3;;
49900;SDS011;35789;48.414;12.768;2024-03-02T17:55:00;44.0;;;22.3;;
49900;SDS011;35789;48.414;12.768;2024-03-02T18:00:00;42.5;;;20.4;;
49900;SDS011;35789;48.414;12.768;2024-03-02T18:05:00;42.5;;;20.4;;
49900;SDS011;35789;48.414;12.768;2024-03-02T18:10:00;42.5;;;20.4;;
49900;SDS011;35789;48.414;12.768;2024-03-02T18:15:00;42.5;;;20.4;;
49900;SDS011;35789;48.414;12.768;2024-03-02T18:20:00;42.5;;;20.4;;
49900;SDS011;35789;48.414;12.768;2024-03-02T18:25:00;42.5;;;20.4;;
49900;SDS011;35789;48.414;12.768;2024-03-02T18:30:00;34.9;;;18.4;;
49900;SDS011;35789;48.414;12.768;2024-03-02T18:35:00;34.9;;;18.4;;
49900;SDS011;35789;48.414;12.768;2024-03-02T18:40:00;34.9;;;18.4;;
49900;SDS011;35789;48.414;12.768;2024-03-02T18:45:00;34.9;;;18.4;;
49900;SDS011;35789;48.414;12.768;2024-03-02T18:50:00;34.9;;;18.4;;
49900;SDS011;35789;48.414;12.768;2024-03-02T18:55:00;34.9;;;18.4;;
49900;SDS011;35789;48.414;12.768;2024-03-02T19:00:00;40.1;;;20.6;;
49900;SDS011;35789;48.414;12.768;2024-03-02T19:05:00;40.1;;;20.6;;
49900;SDS011;35789;48.414;12.768;2024-03-02T19:10:00;40.1;;;20.6;;
49900;SDS011;35789;48.414;12.768;2024-03-02T19:15:00;40.1;;;20.6;;
49900;SDS011;35789;48.414;12.768;2024-03-02T19:20:00;40.1;;;20.6;;
49900;SDS011;35789;48.414;12.768;2024-03-02T19:25:00;40.1;;;20.6;;
49900;SDS011;35789;48.414;12.768;2024-03-02T19:30:00;39.3;;;20.8;;
49900;SDS011;35789;48.414;12.768;2024-03-02T19:35:00;39.3;;;20.8;;
49900;SDS011;35789;48.414;12.768;2024-03-02T19:40:00;39.3;;;20.8;;
49900;SDS011;35789;48.414;12.768;2024-03-02T19:45:00;39.3;;;20.8;;
49900;SDS011;35789;48.414;12.768;2024-03-02T19:50:00;39.3;;;20.8;;
49900;SDS011;35789;48.414;12.768;2024-03-02T19:55:00;39.3;;;20.8;;
49900;SDS011;35789;48.414;12.768;2024-03-02T20:00:00;43.0;;;23.9;;
49900;SDS011;35789;48.414;12.768;2024-03-02T20:10:00;43.0;;;23.9;;
49900;SDS011;35789;48.414;12.768;2024-03-02T20:15:00;43.0;;;23.9;;
49900;SDS011;35789;48.414;12.768;2024-03-02T20:20:00;43.0;;;23.9;;
49900;SDS011;35789;48.414;12.768;2024-03-02T20:25:00;43.0;;;23.9;;
49900;SDS011;35789;48.414;12.768;2024-03-02T20:30:00;52.6;;;28.0;;
49900;SDS011;35789;48.414;12.768;2024-03-02T20:35:00;52.6;;;28.0;;
49900;SDS011;35789;48.414;12.768;2024-03-02T20:40:00;52.6;;;28.0;;
49900;SDS011;35789;48.414;12.768;2024-03-02T20:45:00;52.6;;;28.0;;
49900;SDS011;35789;48.414;12.768;2024-03-02T20:50:02;52.6;;;28.0;;
49900;SDS011;35789;48.414;12.768;2024-03-02T20:55:00;52.6;;;28.0;;
49900;SDS011;35789;48.414;12.768;2024-03-02T21:00:00;52.0;;;27.4;;
49900;SDS011;35789;48.414;12.768;2024-03-02T21:05:00;52.0;;;27.4;;
49900;SDS011;35789;48.414;12.768;2024-03-02T21:10:00;52.0;;;27.4;;
49900;SDS011;35789;48.414;12.768;2024-03-02T21:15:00;52.0;;;27.4;;
49900;SDS011;35789;48.414;12.768;2024-03-02T21:20:00;52.0;;;27.4;;
49900;SDS011;35789;48.414;12.768;2024-03-02T21:25:00;52.0;;;27.4;;
49900;SDS011;35789;48.414;12.768;2024-03-02T21:30:00;53.1;;;28.3;;
49900;SDS011;35789;48.414;12.768;2024-03-02T21:40:00;53.1;;;28.3;;
49900;SDS011;35789;48.414;12.768;2024-03-02T21:45:00;53.1;;;28.3;;
49900;SDS011;35789;48.414;12.768;2024-03-02T21:50:00;53.1;;;28.3;;
49900;SDS011;35789;48.414;12.768;2024-03-02T21:55:00;53.1;;;28.3;;
49900;SDS011;35789;48.414;12.768;2024-03-02T22:00:00;53.4;;;27.7;;
49900;SDS011;35789;48.414;12.768;2024-03-02T22:05:00;53.4;;;27.7;;
49900;SDS011;35789;48.414;12.768;2024-03-02T22:10:00;53.4;;;27.7;;
49900;SDS011;35789;48.414;12.768;2024-03-02T22:15:00;53.4;;;27.7;;
49900;SDS011;35789;48.414;12.768;2024-03-02T22:20:00;53.4;;;27.7;;
49900;SDS011;35789;48.414;12.768;2024-03-02T22:25:00;53.4;;;27.7;;
49900;SDS011;35789;48.414;12.768;2024-03-02T22:30:00;53.0;;;26.9;;
49900;SDS011;35789;48.414;12.768;2024-03-02T22:35:00;53.0;;;26.9;;
49900;SDS011;35789;48.414;12.768;2024-03-02T22:40:00;53.0;;;26.9;;
49900;SDS011;35789;48.414;12.768;2024-03-02T22:45:00;53.0;;;26.9;;
49900;SDS011;35789;48.414;12.768;2024-03-02T22:50:00;53.0;;;26.9;;
49900;SDS011;35789;48.414;12.768;2024-03-02T22:55:00;53.0;;;26.9;;
49900;SDS011;35789;48.414;12.768;2024-03-02T23:00:00;55.7;;;28.4;;
49900;SDS011;35789;48.414;12.768;2024-03-02T23:05:00;55.7;;;28.4;;
49900;SDS011;35789;48.414;12.768;2024-03-02T23:10:00;55.7;;;28.4;;
49900;SDS011;35789;48.414;12.768;2024-03-02T23:15:00;55.7;;;28.4;;
49900;SDS011;35789;48.414;12.768;2024-03-02T23:20:00;55.7;;;28.4;;
49900;SDS011;35789;48.414;12.768;2024-03-02T23:25:00;55.7;;;28.4;;
49900;SDS011;35789;48.414;12.768;2024-03-02T23:30:00;60.8;;;30.0;;
49900;SDS011;35789;48.414;12.768;2024-03-02T23:35:00;60.8;;;30.0;;
49900;SDS011;35789;48.414;12.768;2024-03-02T23:40:00;60.8;;;30.0;;
49900;SDS011;35789;48.414;12.768;2024-03-02T23:45:00;60.8;;;30.0;;
49900;SDS011;35789;48.414;12.768;2024-03-02T23:50:00;60.8;;;30.0;;
49900;SDS011;35789;48.414;12.768;2024-03-02T23:55:00;60.8;;;30.0;;
